CheckWX is a tool to help pilots better visualize weather data.  It is not intended as a substitute for an official pre-flight weather briefing.

06:13:09 UTC

SLTR TAF
Teniente Av. Jorge Henrich Arauz Airport
Trinidad, Bolivia
TAF SLTR 220400Z 2206/2306 00000KT 9999 SCT013 SCT070 TX33/2220Z TN23 /2210Z BECMG 2212/2214 34009KT SCT017 SCT080 PROB40 TEMPO 2219/2222 7000 SHRA FEW020 FEW023CB BKN080

Apr-22@
06:00 UTC

Apr-22 @ 06:00 UTC

Apr-22@
12:00 UTC

Apr-22 @ 12:00 UTC

TAF SLTR 220400Z 2206/2306 00000KT 9999 SCT013 SCT070 TX33/2220Z TN23 /2210Z
Cloud Levels
  • Scattered at 1,300' AGL
  • Scattered at 7,000' AGL

Apr-22@
12:00 UTC

Apr-22 @ 12:00 UTC

Apr-23@
06:00 UTC

Apr-23 @ 06:00 UTC

BECMG 2212/2214 34009KT SCT017 SCT080

Becoming

Becoming Conditions expected by Mon, Apr 22, 2019 @ 14:00 UTC

Wind
  • 340° at 9 KTS
Cloud Levels
  • Scattered at 1,700' AGL
  • Scattered at 8,000' AGL

Apr-22@
19:00 UTC

Apr-22 @ 19:00 UTC

Apr-22@
22:00 UTC

Apr-22 @ 22:00 UTC

PROB40 TEMPO 2219/2222 7000 SHRA FEW020 FEW023CB BKN080

Temporary - 40% Likelihood

Temporary - 40% Likelihood during this time.

Conditions
Rain
Cloud Levels
  • Few at 2,000' AGL
  • Few at 2,300' AGL
  • Broken at 8,000' AGL